Decoded Metar for FMCZ (DZAOUDZI in MAYOTTE ISLAND) (IATA:DZA) | Meteo·Mobile Aviation Weather
aviador You're here:

FMCZ Decoded Metar

DZAOUDZI in MAYOTTE ISLAND
Report Time2019-10-21 01:00:00
UTC Time2019-10-21 01:22:14
Flight Rules vfr VFR
Wind310° at 01 kt
W.Decomp.*RWY 34: 0.9 kt HW 0.4 kt LCW
Visibility9999 m
Phenomena:N/A
Clouds:N/A
Expected CloudBase > 800 ft AGL from Temp-Dew spread
CeilingNone
Temp24°C (ISA +9)
Dew Point22°C (89% RH)
QNH1011 hPa
Density Alt1,486 ft
Elevation23 ft
Report Wrong Elevation
Raw Report
FMCZ 210100Z AUTO 31001KT CAVOK 24/22 Q1011 NOSIG=

Extra information for FMCZ:More info

Metar Taf Metar & Taf Last 4 Metars F.Rules Stats Wind Profile Meteogram Temp Stats Airport Information Weather charts Add Link Nearby VenuesMetar ALERT Operation Metar Decoded Social comments